Terminal Aerodrome Forecast
Issued by NWS

Home | Current Version | Previous Version | Text Only | Print | Product List | Glossary On
Versions: 1 2 3 4 5 6 7 8 9 10 11 12 13 14 15 16 17 18 19 20 21 22 23 24
000
FTPQ31 PGUM 040130 AAE
TAFTYA
TAF AMD
PTYA 040130Z 0402/0424 29008KT P6SM VCSH SCT016 SCT040 BKN130
      TEMPO 0402/0404 VRB08KT 3SM TSRA SCT014CB BKN040=

USA.gov is the U.S. government's official web portal to all federal, state and local government web resources and services.